createdAt,value
2018-06-24T00:00:23.327Z,99.99
2018-06-24T00:01:23.308Z,99.99
2018-06-24T00:02:23.292Z,99.99
2018-06-24T00:03:23.271Z,99.99
2018-06-24T00:04:23.254Z,99.99
2018-06-24T00:05:23.239Z,99.99
2018-06-24T00:06:23.221Z,99.99
2018-06-24T00:07:23.206Z,99.99
2018-06-24T00:08:23.186Z,99.99
2018-06-24T00:09:23.170Z,99.99
2018-06-24T00:10:23.154Z,99.99
2018-06-24T00:11:23.136Z,99.99
2018-06-24T00:12:23.118Z,99.99
2018-06-24T00:13:23.098Z,99.99
2018-06-24T00:14:23.229Z,99.99
2018-06-24T00:15:23.064Z,99.99
2018-06-24T00:16:23.050Z,99.99
2018-06-24T00:17:23.032Z,99.99
2018-06-24T00:18:23.014Z,99.99
2018-06-24T00:19:22.997Z,99.99
2018-06-24T00:20:22.979Z,99.99
2018-06-24T00:21:22.961Z,99.99
2018-06-24T00:22:22.948Z,99.99
2018-06-24T00:23:22.926Z,99.99
2018-06-24T00:24:22.914Z,99.99
2018-06-24T00:25:22.896Z,99.99
2018-06-24T00:26:22.876Z,99.99
2018-06-24T00:27:22.860Z,99.99
2018-06-24T00:28:22.842Z,99.99
2018-06-24T00:29:22.827Z,99.99
2018-06-24T00:30:22.807Z,99.99
2018-06-24T00:31:22.792Z,99.99
2018-06-24T00:32:22.773Z,99.99
2018-06-24T00:33:22.759Z,99.99
2018-06-24T00:34:22.745Z,99.99
2018-06-24T00:35:22.720Z,99.99
2018-06-24T00:36:22.707Z,99.99
2018-06-24T00:37:22.685Z,99.99
2018-06-24T00:38:22.668Z,99.99
2018-06-24T00:39:22.660Z,99.99
2018-06-24T00:40:22.637Z,99.99
2018-06-24T00:41:22.618Z,99.99
2018-06-24T00:42:22.599Z,99.99
2018-06-24T00:43:22.583Z,99.99
2018-06-24T00:44:22.571Z,99.99
2018-06-24T00:45:22.551Z,99.99
2018-06-24T00:46:22.541Z,99.99
2018-06-24T00:47:22.514Z,99.99
2018-06-24T00:48:22.497Z,99.99
2018-06-24T00:49:22.479Z,99.99
2018-06-24T00:50:22.464Z,99.99
2018-06-24T00:51:22.444Z,99.99
2018-06-24T00:52:22.428Z,99.99
2018-06-24T00:53:22.409Z,99.99
2018-06-24T00:54:22.398Z,99.99
2018-06-24T00:55:22.378Z,99.99
2018-06-24T00:56:22.359Z,99.99
2018-06-24T00:57:22.342Z,99.99
2018-06-24T00:58:22.326Z,99.99
2018-06-24T00:59:22.307Z,99.99
2018-06-24T01:00:22.290Z,99.99
2018-06-24T01:01:22.272Z,99.99
2018-06-24T01:02:22.256Z,99.99
2018-06-24T01:03:22.238Z,99.99
2018-06-24T01:04:22.220Z,99.99
2018-06-24T01:05:22.204Z,99.99
2018-06-24T01:06:22.188Z,99.99
2018-06-24T01:07:22.214Z,99.99
2018-06-24T01:08:22.152Z,99.99
2018-06-24T01:09:22.136Z,99.99
2018-06-24T01:10:22.118Z,99.99
2018-06-24T01:11:22.103Z,99.99
2018-06-24T01:12:22.084Z,99.99
2018-06-24T01:13:22.066Z,99.99
2018-06-24T01:14:22.049Z,99.99
2018-06-24T01:15:22.032Z,99.99
2018-06-24T01:16:22.016Z,99.99
2018-06-24T01:17:21.997Z,99.99
2018-06-24T01:18:21.984Z,99.99
2018-06-24T01:19:21.962Z,99.99
2018-06-24T01:20:21.948Z,99.99
2018-06-24T01:21:21.928Z,99.99
2018-06-24T01:22:21.913Z,99.99
2018-06-24T01:23:21.892Z,99.99
2018-06-24T01:24:21.877Z,99.99
2018-06-24T01:25:21.861Z,99.99
2018-06-24T01:26:21.844Z,99.99
2018-06-24T01:27:21.825Z,99.99
2018-06-24T01:28:21.810Z,99.99
2018-06-24T01:29:21.793Z,99.99
2018-06-24T01:30:21.772Z,99.99
2018-06-24T01:31:21.756Z,99.99
2018-06-24T01:32:21.738Z,99.99
2018-06-24T01:33:21.722Z,99.99
2018-06-24T01:34:21.705Z,99.99
2018-06-24T01:35:21.692Z,99.99
2018-06-24T01:36:21.671Z,99.99
2018-06-24T01:37:21.654Z,99.99
2018-06-24T01:38:21.637Z,99.99
2018-06-24T01:39:21.618Z,99.99
2018-06-24T01:40:21.603Z,99.99
2018-06-24T01:41:21.583Z,99.99
2018-06-24T01:42:21.565Z,99.99
2018-06-24T01:43:21.548Z,99.99
2018-06-24T01:44:21.529Z,99.99
2018-06-24T01:45:21.514Z,99.99
2018-06-24T01:46:21.498Z,99.99
2018-06-24T01:47:21.482Z,99.99
2018-06-24T01:48:21.461Z,99.99
2018-06-24T01:49:21.447Z,99.99
2018-06-24T01:50:21.428Z,99.99
2018-06-24T01:51:21.409Z,99.99
2018-06-24T01:52:21.392Z,99.99
2018-06-24T01:53:21.379Z,99.99
2018-06-24T01:54:21.357Z,99.99
2018-06-24T01:55:21.342Z,99.99
2018-06-24T01:56:21.325Z,99.99
2018-06-24T01:57:21.305Z,99.99
2018-06-24T01:58:21.288Z,99.99
2018-06-24T01:59:21.274Z,99.99
2018-06-24T02:00:21.251Z,99.99
2018-06-24T02:01:21.236Z,99.99
2018-06-24T02:02:21.219Z,99.99
2018-06-24T02:03:21.200Z,99.99
2018-06-24T02:04:21.182Z,99.99
2018-06-24T02:05:21.169Z,99.99
2018-06-24T02:06:21.154Z,99.99
2018-06-24T02:07:21.134Z,99.99
2018-06-24T02:08:21.115Z,99.99
2018-06-24T02:09:21.096Z,99.99
2018-06-24T02:10:21.079Z,99.99
2018-06-24T02:11:21.062Z,99.99
2018-06-24T02:12:21.044Z,99.99
2018-06-24T02:13:21.026Z,99.99
2018-06-24T02:14:21.009Z,99.99
2018-06-24T02:15:20.990Z,99.99
2018-06-24T02:16:20.974Z,99.99
2018-06-24T02:17:20.961Z,99.99
2018-06-24T02:18:20.939Z,99.99
2018-06-24T02:19:20.921Z,99.99
2018-06-24T02:20:20.904Z,99.99
2018-06-24T02:21:20.887Z,99.99
2018-06-24T02:22:20.870Z,99.99
2018-06-24T02:23:20.866Z,99.99
2018-06-24T02:24:20.835Z,99.99
2018-06-24T02:25:20.816Z,99.99
2018-06-24T02:26:20.803Z,99.99
2018-06-24T02:27:20.783Z,99.99
2018-06-24T02:28:20.764Z,99.99
2018-06-24T02:29:20.748Z,99.99
2018-06-24T02:30:20.729Z,99.99
2018-06-24T02:31:20.721Z,99.99
2018-06-24T02:32:20.694Z,99.99
2018-06-24T02:33:20.677Z,99.99
2018-06-24T02:34:20.661Z,99.99
2018-06-24T02:35:20.642Z,99.99
2018-06-24T02:36:20.627Z,99.99
2018-06-24T02:37:20.610Z,99.99
2018-06-24T02:38:20.597Z,99.99
2018-06-24T02:39:20.572Z,99.99
2018-06-24T02:40:20.556Z,99.99
2018-06-24T02:41:20.538Z,99.99
2018-06-24T02:42:20.520Z,99.99
2018-06-24T02:43:20.501Z,99.99
2018-06-24T02:44:20.484Z,99.99
2018-06-24T02:45:20.471Z,99.99
2018-06-24T02:46:20.451Z,99.99
2018-06-24T02:47:20.433Z,99.99
2018-06-24T02:48:20.416Z,99.99
2018-06-24T02:49:20.409Z,99.99
2018-06-24T02:50:20.381Z,99.99
2018-06-24T02:51:20.362Z,99.99
2018-06-24T02:52:20.353Z,99.99
2018-06-24T02:53:20.329Z,99.99
2018-06-24T02:54:20.311Z,99.99
2018-06-24T02:55:20.302Z,99.99
2018-06-24T02:56:20.273Z,99.99
2018-06-24T02:57:20.255Z,99.99
2018-06-24T02:58:20.238Z,99.99
2018-06-24T02:59:20.220Z,99.99
2018-06-24T03:00:20.206Z,99.99
2018-06-24T03:01:20.192Z,99.99
2018-06-24T03:02:20.168Z,99.99
2018-06-24T03:03:20.154Z,99.99
2018-06-24T03:04:20.135Z,99.99
2018-06-24T03:05:20.117Z,99.99
2018-06-24T03:06:20.100Z,99.99
2018-06-24T03:07:20.080Z,99.99
2018-06-24T03:08:20.063Z,99.99
2018-06-24T03:09:20.050Z,99.99
2018-06-24T03:10:20.030Z,99.99
2018-06-24T03:11:20.011Z,99.99
2018-06-24T03:12:19.997Z,99.99
2018-06-24T03:13:19.982Z,99.99
2018-06-24T03:14:19.960Z,99.99
2018-06-24T03:15:19.942Z,99.99
2018-06-24T03:16:19.924Z,99.99
2018-06-24T03:17:19.905Z,99.99
2018-06-24T03:18:19.892Z,99.99
2018-06-24T03:19:19.872Z,99.99
2018-06-24T03:20:19.862Z,99.99
2018-06-24T03:21:19.836Z,99.99
2018-06-24T03:22:19.820Z,99.99
2018-06-24T03:23:19.803Z,99.99
2018-06-24T03:24:19.781Z,99.99
2018-06-24T03:25:19.766Z,99.99
2018-06-24T03:26:19.749Z,99.99
2018-06-24T03:27:19.730Z,99.99
2018-06-24T03:28:19.714Z,99.99
2018-06-24T03:29:19.696Z,99.99
2018-06-24T03:30:19.679Z,99.99
2018-06-24T03:31:19.660Z,99.99
2018-06-24T03:32:19.643Z,99.99
2018-06-24T03:33:19.626Z,99.99
2018-06-24T03:34:19.609Z,99.99
2018-06-24T03:35:19.593Z,99.99
2018-06-24T03:36:19.572Z,99.99
2018-06-24T03:37:19.561Z,99.99
2018-06-24T03:38:19.537Z,99.99
2018-06-24T03:39:19.520Z,99.99
2018-06-24T03:40:19.507Z,99.99
2018-06-24T03:41:19.491Z,99.99
2018-06-24T03:42:19.470Z,99.99
2018-06-24T03:43:19.452Z,99.99
2018-06-24T03:44:19.433Z,99.99
2018-06-24T03:45:19.417Z,99.99
2018-06-24T03:46:19.402Z,99.99
2018-06-24T03:47:19.380Z,99.99
2018-06-24T03:48:19.368Z,99.99
2018-06-24T03:49:19.346Z,99.99
2018-06-24T03:50:19.329Z,99.99
2018-06-24T03:51:19.312Z,99.99
2018-06-24T03:52:19.294Z,99.99
2018-06-24T03:53:19.277Z,99.99
2018-06-24T03:54:19.260Z,99.99
2018-06-24T03:55:19.241Z,99.99
2018-06-24T03:56:19.226Z,99.99
2018-06-24T03:57:19.209Z,99.99
2018-06-24T03:58:19.191Z,99.99
2018-06-24T03:59:19.176Z,99.99
2018-06-24T04:00:19.159Z,99.99
2018-06-24T04:01:19.138Z,99.99
2018-06-24T04:02:19.122Z,99.99
2018-06-24T04:03:19.103Z,99.99
2018-06-24T04:04:19.089Z,99.99
2018-06-24T04:05:19.065Z,99.99
2018-06-24T04:06:19.052Z,99.99
2018-06-24T04:07:19.030Z,99.99
2018-06-24T04:08:19.014Z,99.99
2018-06-24T04:09:19.003Z,99.99
2018-06-24T04:10:18.985Z,99.99
2018-06-24T04:11:18.962Z,99.99
2018-06-24T04:12:18.944Z,99.99
2018-06-24T04:13:18.928Z,99.99
2018-06-24T04:14:18.915Z,99.99
2018-06-24T04:15:18.897Z,99.99
2018-06-24T04:16:18.880Z,99.99
2018-06-24T04:17:18.866Z,99.99
2018-06-24T04:18:18.856Z,99.99
2018-06-24T04:19:18.821Z,99.99
2018-06-24T04:20:18.810Z,99.99
2018-06-24T04:21:18.788Z,99.99
2018-06-24T04:22:18.771Z,99.99
2018-06-24T04:23:18.758Z,99.99
2018-06-24T04:24:18.736Z,99.99
2018-06-24T04:25:18.719Z,99.99
2018-06-24T04:26:18.704Z,99.99
2018-06-24T04:27:18.685Z,99.99
2018-06-24T04:28:18.667Z,99.99
2018-06-24T04:29:18.653Z,99.99
2018-06-24T04:30:18.636Z,99.99
2018-06-24T04:31:18.616Z,99.99
2018-06-24T04:32:18.598Z,99.99
2018-06-24T04:33:18.580Z,99.99
2018-06-24T04:34:18.561Z,99.99
2018-06-24T04:35:18.545Z,99.99
2018-06-24T04:36:18.529Z,99.99
2018-06-24T04:37:18.512Z,99.99
2018-06-24T04:38:18.499Z,99.99
2018-06-24T04:39:18.526Z,99.99
2018-06-24T04:40:18.461Z,99.99
2018-06-24T04:41:18.442Z,99.99
2018-06-24T04:42:18.423Z,99.99
2018-06-24T04:43:18.409Z,99.99
2018-06-24T04:44:18.392Z,99.99
2018-06-24T04:45:18.373Z,99.99
2018-06-24T04:46:18.357Z,99.99
2018-06-24T04:47:18.340Z,99.99
2018-06-24T04:48:18.323Z,99.99
2018-06-24T04:49:18.300Z,99.99
2018-06-24T04:50:18.287Z,99.99
2018-06-24T04:51:18.274Z,99.99
2018-06-24T04:52:18.253Z,99.99
2018-06-24T04:53:18.242Z,99.99
2018-06-24T04:54:18.220Z,99.99
2018-06-24T04:55:18.201Z,99.99
2018-06-24T04:56:18.188Z,99.99
2018-06-24T04:57:18.175Z,99.99
2018-06-24T04:58:18.150Z,99.99
2018-06-24T04:59:18.134Z,99.99
2018-06-24T05:00:18.118Z,99.99
2018-06-24T05:01:18.099Z,99.99
2018-06-24T05:02:18.080Z,99.99
2018-06-24T05:03:18.069Z,99.99
2018-06-24T05:04:18.045Z,99.99
2018-06-24T05:05:18.035Z,99.99
2018-06-24T05:06:18.015Z,99.99
2018-06-24T05:07:17.996Z,99.99
2018-06-24T05:08:17.984Z,99.99
2018-06-24T05:09:17.963Z,99.99
2018-06-24T05:10:17.946Z,99.99
2018-06-24T05:11:17.929Z,99.99
2018-06-24T05:12:17.913Z,99.99
2018-06-24T05:13:17.898Z,99.99
2018-06-24T05:14:17.899Z,99.99
2018-06-24T05:15:17.861Z,99.99
2018-06-24T05:16:17.847Z,99.99
2018-06-24T05:17:17.826Z,99.99
2018-06-24T05:18:17.810Z,99.99
2018-06-24T05:19:17.795Z,99.99
2018-06-24T05:20:17.774Z,99.99
2018-06-24T05:21:17.757Z,99.99
2018-06-24T05:22:17.741Z,99.99
2018-06-24T05:23:17.725Z,99.99
2018-06-24T05:24:17.707Z,99.99
2018-06-24T05:25:17.694Z,99.99
2018-06-24T05:26:17.674Z,99.99
2018-06-24T05:27:17.656Z,99.99
2018-06-24T05:28:17.638Z,99.99
2018-06-24T05:29:17.630Z,99.99
2018-06-24T05:30:18.198Z,99.99
2018-06-24T05:31:17.588Z,99.99
2018-06-24T05:32:17.573Z,99.99
2018-06-24T05:33:17.554Z,99.81
2018-06-24T05:34:17.542Z,99.99
2018-06-24T05:35:17.522Z,99.99
2018-06-24T05:36:17.504Z,99.99
2018-06-24T05:37:17.491Z,99.99
2018-06-24T05:38:17.472Z,99.99
2018-06-24T05:39:17.454Z,99.99
2018-06-24T05:40:17.438Z,99.99
2018-06-24T05:41:17.420Z,99.99
2018-06-24T05:42:17.403Z,99.99
2018-06-24T05:43:17.387Z,99.99
2018-06-24T05:44:17.369Z,99.99
2018-06-24T05:45:17.353Z,99.99
2018-06-24T05:46:17.337Z,99.99
2018-06-24T05:47:17.320Z,99.99
2018-06-24T05:48:17.303Z,99.81
2018-06-24T05:49:17.287Z,99.99
2018-06-24T05:50:17.276Z,99.99
2018-06-24T05:51:17.251Z,99.99
2018-06-24T05:52:17.239Z,99.99
2018-06-24T05:53:17.219Z,99.62
2018-06-24T05:54:17.251Z,99.90
2018-06-24T05:55:17.186Z,99.99
2018-06-24T05:56:17.173Z,99.99
2018-06-24T05:57:17.153Z,99.90
2018-06-24T05:58:17.140Z,99.24
2018-06-24T05:59:17.120Z,99.04
2018-06-24T06:00:17.103Z,99.99
2018-06-24T06:01:17.087Z,99.99
2018-06-24T06:02:17.069Z,99.99
2018-06-24T06:03:17.057Z,99.99
2018-06-24T06:04:17.036Z,99.99
2018-06-24T06:05:17.020Z,99.99
2018-06-24T06:06:17.003Z,99.90
2018-06-24T06:07:16.985Z,99.24
2018-06-24T06:08:16.985Z,99.99
2018-06-24T06:09:16.951Z,99.43
2018-06-24T06:10:17.008Z,99.33
2018-06-24T06:11:16.917Z,99.43
2018-06-24T06:12:16.903Z,99.99
2018-06-24T06:13:16.885Z,99.99
2018-06-24T06:14:16.874Z,99.81
2018-06-24T06:15:16.850Z,99.99
2018-06-24T06:16:16.834Z,99.99
2018-06-24T06:17:16.820Z,99.99
2018-06-24T06:18:16.802Z,99.99
2018-06-24T06:19:16.788Z,99.99
2018-06-24T06:20:16.771Z,99.99
2018-06-24T06:21:16.752Z,99.99
2018-06-24T06:22:16.737Z,99.99
2018-06-24T06:23:16.718Z,99.99
2018-06-24T06:24:16.703Z,99.62
2018-06-24T06:25:16.688Z,98.75
2018-06-24T06:26:16.668Z,99.10
2018-06-24T06:27:16.650Z,99.10
2018-06-24T06:28:16.637Z,98.81
2018-06-24T06:29:16.617Z,98.33
2018-06-24T06:30:16.651Z,99.19
2018-06-24T06:31:16.583Z,98.18
2018-06-24T06:32:16.573Z,98.43
2018-06-24T06:33:16.553Z,98.61
2018-06-24T06:34:16.536Z,97.95
2018-06-24T06:35:16.518Z,97.90
2018-06-24T06:36:16.502Z,98.71
2018-06-24T06:37:16.485Z,99.38
2018-06-24T06:38:16.468Z,98.81
2018-06-24T06:39:16.463Z,98.04
2018-06-24T06:40:16.437Z,97.85
2018-06-24T06:41:16.416Z,97.52
2018-06-24T06:42:16.400Z,97.42
2018-06-24T06:43:16.384Z,98.52
2018-06-24T06:44:16.367Z,98.33
2018-06-24T06:45:16.463Z,98.61
2018-06-24T06:46:16.334Z,99.52
2018-06-24T06:47:16.318Z,99.33
2018-06-24T06:48:16.306Z,99.99
2018-06-24T06:49:16.286Z,99.99
2018-06-24T06:50:16.281Z,99.52
2018-06-24T06:51:16.255Z,98.33
2018-06-24T06:52:16.235Z,96.99
2018-06-24T06:53:16.218Z,97.75
2018-06-24T06:54:16.202Z,98.81
2018-06-24T06:55:16.184Z,99.00
2018-06-24T06:56:16.169Z,99.99
2018-06-24T06:57:16.152Z,99.86
2018-06-24T06:58:16.137Z,99.96
2018-06-24T06:59:16.117Z,99.57
2018-06-24T07:00:16.148Z,99.48
2018-06-24T07:01:16.085Z,99.19
2018-06-24T07:02:16.072Z,99.00
2018-06-24T07:03:16.122Z,99.99
2018-06-24T07:04:16.036Z,98.61
2018-06-24T07:05:16.020Z,98.61
2018-06-24T07:06:16.003Z,98.71
2018-06-24T07:07:15.986Z,98.71
2018-06-24T07:08:15.969Z,99.19
2018-06-24T07:09:15.957Z,98.90
2018-06-24T07:10:15.936Z,98.43
2018-06-24T07:11:15.921Z,99.48
2018-06-24T07:12:15.904Z,99.99
2018-06-24T07:13:15.886Z,99.99
2018-06-24T07:14:15.872Z,98.81
2018-06-24T07:15:15.855Z,99.38
2018-06-24T07:16:15.839Z,99.86
2018-06-24T07:17:15.820Z,99.10
2018-06-24T07:18:15.804Z,99.76
2018-06-24T07:19:15.790Z,99.99
2018-06-24T07:20:15.773Z,98.61
2018-06-24T07:21:15.757Z,99.48
2018-06-24T07:22:15.741Z,99.19
2018-06-24T07:23:15.722Z,99.99
2018-06-24T07:24:15.707Z,99.99
2018-06-24T07:25:15.692Z,99.99
2018-06-24T07:26:15.674Z,98.71
2018-06-24T07:27:15.657Z,99.48
2018-06-24T07:28:15.638Z,99.99
2018-06-24T07:29:15.626Z,99.91
2018-06-24T07:30:15.607Z,99.33
2018-06-24T07:31:15.590Z,98.95
2018-06-24T07:32:15.574Z,99.81
2018-06-24T07:33:15.583Z,99.72
2018-06-24T07:34:15.542Z,98.28
2018-06-24T07:35:15.523Z,98.19
2018-06-24T07:36:15.510Z,98.28
2018-06-24T07:37:15.494Z,97.42
2018-06-24T07:38:15.479Z,97.23
2018-06-24T07:39:15.523Z,96.18
2018-06-24T07:40:15.445Z,97.13
2018-06-24T07:41:15.426Z,98.19
2018-06-24T07:42:15.412Z,98.95
2018-06-24T07:43:15.392Z,97.85
2018-06-24T07:44:15.383Z,97.28
2018-06-24T07:45:15.363Z,97.38
2018-06-24T07:46:15.346Z,96.89
2018-06-24T07:47:15.334Z,96.32
2018-06-24T07:48:15.314Z,95.84
2018-06-24T07:49:15.300Z,96.03
2018-06-24T07:50:15.331Z,95.70
2018-06-24T07:51:15.266Z,96.56
2018-06-24T07:52:15.253Z,96.66
2018-06-24T07:53:15.235Z,96.37
2018-06-24T07:54:15.222Z,95.22
2018-06-24T07:55:15.208Z,95.41
2018-06-24T07:56:15.188Z,94.36
2018-06-24T07:57:15.171Z,94.69
2018-06-24T07:58:15.159Z,95.56
2018-06-24T07:59:15.142Z,94.69
2018-06-24T08:00:15.123Z,93.35
2018-06-24T08:01:15.109Z,93.83
2018-06-24T08:02:15.093Z,95.22
2018-06-24T08:03:15.093Z,95.03
2018-06-24T08:04:15.060Z,94.55
2018-06-24T08:05:15.053Z,96.61
2018-06-24T08:06:15.031Z,96.18
2018-06-24T08:07:15.014Z,95.61
2018-06-24T08:08:15.001Z,95.51
2018-06-24T08:09:14.987Z,95.98
2018-06-24T08:10:14.968Z,95.22
2018-06-24T08:11:14.968Z,95.89
2018-06-24T08:12:14.936Z,96.66
2018-06-24T08:13:14.920Z,96.94
2018-06-24T08:14:14.908Z,95.84
2018-06-24T08:15:14.888Z,95.84
2018-06-24T08:16:14.872Z,96.22
2018-06-24T08:17:14.856Z,96.22
2018-06-24T08:18:14.841Z,95.84
2018-06-24T08:19:14.826Z,96.61
2018-06-24T08:20:14.809Z,95.27
2018-06-24T08:21:14.793Z,95.07
2018-06-24T08:22:14.784Z,95.65
2018-06-24T08:23:14.766Z,94.40
2018-06-24T08:24:14.749Z,95.17
2018-06-24T08:25:14.733Z,94.60
2018-06-24T08:26:14.716Z,94.79
2018-06-24T08:27:14.702Z,95.94
2018-06-24T08:28:14.685Z,94.98
2018-06-24T08:29:14.671Z,96.03
2018-06-24T08:30:14.653Z,95.22
2018-06-24T08:31:14.640Z,94.12
2018-06-24T08:32:14.624Z,94.69
2018-06-24T08:33:14.608Z,95.94
2018-06-24T08:34:14.593Z,95.27
2018-06-24T08:35:14.575Z,95.41
2018-06-24T08:36:14.560Z,97.28
2018-06-24T08:37:14.546Z,97.66
2018-06-24T08:38:14.530Z,97.18
2018-06-24T08:39:14.514Z,95.27
2018-06-24T08:40:14.498Z,94.31
2018-06-24T08:41:14.490Z,95.46
2018-06-24T08:42:14.520Z,94.98
2018-06-24T08:43:14.452Z,95.94
2018-06-24T08:44:14.447Z,94.79
2018-06-24T08:45:14.422Z,94.40
2018-06-24T08:46:14.405Z,95.46
2018-06-24T08:47:14.416Z,95.07
2018-06-24T08:48:14.373Z,94.79
2018-06-24T08:49:14.364Z,94.40
2018-06-24T08:50:14.354Z,94.12
2018-06-24T08:51:14.332Z,93.74
2018-06-24T08:52:14.323Z,94.50
2018-06-24T08:53:14.299Z,95.27
2018-06-24T08:54:14.304Z,94.40
2018-06-24T08:55:14.269Z,94.93
2018-06-24T08:56:14.251Z,95.22
2018-06-24T08:57:14.235Z,94.84
2018-06-24T08:58:14.225Z,95.12
2018-06-24T08:59:14.203Z,94.65
2018-06-24T09:00:14.186Z,94.36
2018-06-24T09:01:14.173Z,95.84
2018-06-24T09:02:14.158Z,95.56
2018-06-24T09:03:14.146Z,96.42
2018-06-24T09:04:14.127Z,95.84
2018-06-24T09:05:14.112Z,95.84
2018-06-24T09:06:14.097Z,94.40
2018-06-24T09:07:14.080Z,94.50
2018-06-24T09:08:14.065Z,96.03
2018-06-24T09:09:14.050Z,95.89
2018-06-24T09:10:14.038Z,95.51
2018-06-24T09:11:14.019Z,95.79
2018-06-24T09:12:14.010Z,96.66
2018-06-24T09:13:14.000Z,95.12
2018-06-24T09:14:14.006Z,95.70
2018-06-24T09:15:13.957Z,95.41
2018-06-24T09:16:13.948Z,95.26
2018-06-24T09:17:13.928Z,94.98
2018-06-24T09:18:13.913Z,94.50
2018-06-24T09:19:13.903Z,91.96
2018-06-24T09:20:13.884Z,92.44
2018-06-24T09:21:13.907Z,93.21
2018-06-24T09:22:13.896Z,92.54
2018-06-24T09:23:13.845Z,93.11
2018-06-24T09:24:13.825Z,92.63
2018-06-24T09:25:13.809Z,93.11
2018-06-24T09:26:13.795Z,94.07
2018-06-24T09:27:13.779Z,94.07
2018-06-24T09:28:13.768Z,94.40
2018-06-24T09:29:13.755Z,92.00
2018-06-24T09:30:13.742Z,91.81
2018-06-24T09:31:13.721Z,90.28
2018-06-24T09:32:13.711Z,89.99
2018-06-24T09:33:13.701Z,91.05
2018-06-24T09:34:13.678Z,89.32
2018-06-24T09:35:13.673Z,91.24
2018-06-24T09:36:13.651Z,90.56
2018-06-24T09:37:13.641Z,90.18
2018-06-24T09:38:13.623Z,89.32
2018-06-24T09:39:13.611Z,91.72
2018-06-24T09:40:13.599Z,90.66
2018-06-24T09:41:13.593Z,89.41
2018-06-24T09:42:13.573Z,90.85
2018-06-24T09:43:13.551Z,88.84
2018-06-24T09:44:13.540Z,89.22
2018-06-24T09:45:13.531Z,89.89
2018-06-24T09:46:13.514Z,87.30
2018-06-24T09:47:13.499Z,87.30
2018-06-24T09:48:13.481Z,87.11
2018-06-24T09:49:13.473Z,87.98
2018-06-24T09:50:13.470Z,88.26
2018-06-24T09:51:13.449Z,87.82
2018-06-24T09:52:13.431Z,88.88
2018-06-24T09:53:13.419Z,86.10
2018-06-24T09:54:13.404Z,85.14
2018-06-24T09:55:13.393Z,85.81
2018-06-24T09:56:13.390Z,85.71
2018-06-24T09:57:13.365Z,85.52
2018-06-24T09:58:13.358Z,86.54
2018-06-24T09:59:13.337Z,86.05
2018-06-24T10:00:13.326Z,86.54
2018-06-24T10:01:13.318Z,88.35
2018-06-24T10:02:13.298Z,86.92
2018-06-24T10:03:13.287Z,87.11
2018-06-24T10:04:13.271Z,89.22
2018-06-24T10:05:13.259Z,89.41
2018-06-24T10:06:13.243Z,89.70
2018-06-24T10:07:13.230Z,88.35
2018-06-24T10:08:13.222Z,87.88
2018-06-24T10:09:13.207Z,86.54
2018-06-24T10:10:13.198Z,87.49
2018-06-24T10:11:13.177Z,86.96
2018-06-24T10:12:13.166Z,86.44
2018-06-24T10:13:13.150Z,86.77
2018-06-24T10:14:13.141Z,87.82
2018-06-24T10:15:13.128Z,86.19
2018-06-24T10:16:13.113Z,85.37
2018-06-24T10:17:13.099Z,84.22
2018-06-24T10:18:13.084Z,83.84
2018-06-24T10:19:13.072Z,84.60
2018-06-24T10:20:13.065Z,83.93
2018-06-24T10:21:13.047Z,83.54
2018-06-24T10:22:13.034Z,83.84
2018-06-24T10:23:13.022Z,82.40
2018-06-24T10:24:13.017Z,81.97
2018-06-24T10:25:12.993Z,83.60
2018-06-24T10:26:12.980Z,86.24
2018-06-24T10:27:12.965Z,83.26
2018-06-24T10:28:12.962Z,82.54
2018-06-24T10:29:12.946Z,82.74
2018-06-24T10:30:12.935Z,82.93
2018-06-24T10:31:12.916Z,84.18
2018-06-24T10:32:12.901Z,84.75
2018-06-24T10:33:12.898Z,84.56
2018-06-24T10:34:12.877Z,84.85
2018-06-24T10:35:12.866Z,85.24
2018-06-24T10:36:12.853Z,84.56
2018-06-24T10:37:12.837Z,85.14
2018-06-24T10:38:12.826Z,84.31
2018-06-24T10:39:12.811Z,84.12
2018-06-24T10:40:12.798Z,83.26
2018-06-24T10:41:12.796Z,83.49
2018-06-24T10:42:12.776Z,83.30
2018-06-24T10:43:12.767Z,81.96
2018-06-24T10:44:12.751Z,81.38
2018-06-24T10:45:12.741Z,82.34
2018-06-24T10:46:12.732Z,80.96
2018-06-24T10:47:12.712Z,82.07
2018-06-24T10:48:12.702Z,84.95
2018-06-24T10:49:12.684Z,87.44
2018-06-24T10:50:12.670Z,86.38
2018-06-24T10:51:12.659Z,87.73
2018-06-24T10:52:12.652Z,86.68
2018-06-24T10:53:12.633Z,87.39
2018-06-24T10:54:12.622Z,86.81
2018-06-24T10:55:12.618Z,84.94
2018-06-24T10:56:12.595Z,83.40
2018-06-24T10:57:12.583Z,84.17
2018-06-24T10:58:12.578Z,84.01
2018-06-24T10:59:12.557Z,81.90
2018-06-24T11:00:12.542Z,79.40
2018-06-24T11:01:12.531Z,78.73
2018-06-24T11:02:12.587Z,78.92
2018-06-24T11:03:12.505Z,78.58
2018-06-24T11:04:12.494Z,78.34
2018-06-24T11:05:12.487Z,79.21
2018-06-24T11:06:12.468Z,79.21
2018-06-24T11:07:12.454Z,80.04
2018-06-24T11:08:12.451Z,80.96
2018-06-24T11:09:12.430Z,83.45
2018-06-24T11:10:12.417Z,85.33
2018-06-24T11:11:12.409Z,89.50
2018-06-24T11:12:12.392Z,90.03
2018-06-24T11:13:12.390Z,88.40
2018-06-24T11:14:12.366Z,86.87
2018-06-24T11:15:12.355Z,87.63
2018-06-24T11:16:12.341Z,86.19
2018-06-24T11:17:12.333Z,85.33
2018-06-24T11:18:12.323Z,85.08
2018-06-24T11:19:12.302Z,83.74
2018-06-24T11:20:12.291Z,83.45
2018-06-24T11:21:12.278Z,84.07
2018-06-24T11:22:12.265Z,82.09
2018-06-24T11:23:12.262Z,80.65
2018-06-24T11:24:12.246Z,78.28
2018-06-24T11:25:12.226Z,76.84
2018-06-24T11:26:12.223Z,75.73
2018-06-24T11:27:12.204Z,75.82
2018-06-24T11:28:12.190Z,73.80
2018-06-24T11:29:12.176Z,74.09
2018-06-24T11:30:12.165Z,74.03
2018-06-24T11:31:12.153Z,74.22
2018-06-24T11:32:12.146Z,72.20
2018-06-24T11:33:12.151Z,72.36
2018-06-24T11:34:12.127Z,72.45
2018-06-24T11:35:12.108Z,74.15
2018-06-24T11:36:12.102Z,74.34
2018-06-24T11:37:12.085Z,76.36
2018-06-24T11:38:12.073Z,75.65
2018-06-24T11:39:12.067Z,76.42
2018-06-24T11:40:12.050Z,76.81
2018-06-24T11:41:12.047Z,77.67
2018-06-24T11:42:12.029Z,77.58
2018-06-24T11:43:12.019Z,78.06
2018-06-24T11:44:12.006Z,78.83
2018-06-24T11:45:11.994Z,77.83
2018-06-24T11:46:11.980Z,77.25
2018-06-24T11:47:12.022Z,78.40
2018-06-24T11:48:11.958Z,78.11
2018-06-24T11:49:11.946Z,78.98
2018-06-24T11:50:11.932Z,80.32
2018-06-24T11:51:11.921Z,81.57
2018-06-24T11:52:11.911Z,80.96
2018-06-24T11:53:11.895Z,81.15
2018-06-24T11:54:11.880Z,80.76
2018-06-24T11:55:11.882Z,81.24
2018-06-24T11:56:11.857Z,81.82
2018-06-24T11:57:11.848Z,81.63
2018-06-24T11:58:11.832Z,80.96
2018-06-24T11:59:11.822Z,80.32
2018-06-24T12:00:11.808Z,78.88
2018-06-24T12:01:11.799Z,78.40
2018-06-24T12:02:11.782Z,77.53
2018-06-24T12:03:11.769Z,78.02
2018-06-24T12:04:11.759Z,78.02
2018-06-24T12:05:11.743Z,77.34
2018-06-24T12:06:11.734Z,76.39
2018-06-24T12:07:11.718Z,76.77
2018-06-24T12:08:11.715Z,77.63
2018-06-24T12:09:11.697Z,76.81
2018-06-24T12:10:11.682Z,75.94
2018-06-24T12:11:11.669Z,75.65
2018-06-24T12:12:11.656Z,75.94
2018-06-24T12:13:11.644Z,74.50
2018-06-24T12:14:11.636Z,75.37
2018-06-24T12:15:11.619Z,74.69
2018-06-24T12:16:11.608Z,76.23
2018-06-24T12:17:11.596Z,75.56
2018-06-24T12:18:11.631Z,74.02
2018-06-24T12:19:11.568Z,74.30
2018-06-24T12:20:11.566Z,73.28
2018-06-24T12:21:11.548Z,72.90
2018-06-24T12:22:11.534Z,71.75
2018-06-24T12:23:11.522Z,72.03
2018-06-24T12:24:11.508Z,72.65
2018-06-24T12:25:11.507Z,72.74
2018-06-24T12:26:11.485Z,70.86
2018-06-24T12:27:11.474Z,70.95
2018-06-24T12:28:11.464Z,70.62
2018-06-24T12:29:11.451Z,72.65
2018-06-24T12:30:11.439Z,71.59
2018-06-24T12:31:11.428Z,72.17
2018-06-24T12:32:11.418Z,72.52
2018-06-24T12:33:11.405Z,73.38
2018-06-24T12:34:11.407Z,74.50
2018-06-24T12:35:11.381Z,74.82
2018-06-24T12:36:11.370Z,72.29
2018-06-24T12:37:11.363Z,72.96
2018-06-24T12:38:11.348Z,72.38
2018-06-24T12:39:11.335Z,72.09
2018-06-24T12:40:11.325Z,72.86
2018-06-24T12:41:11.314Z,72.29
2018-06-24T12:42:11.309Z,72.09
2018-06-24T12:43:11.287Z,73.63
2018-06-24T12:44:11.276Z,72.19
2018-06-24T12:45:11.265Z,72.96
2018-06-24T12:46:11.260Z,72.38
2018-06-24T12:47:11.239Z,72.96
2018-06-24T12:48:11.229Z,71.81
2018-06-24T12:49:11.217Z,71.81
2018-06-24T12:50:11.205Z,71.81
2018-06-24T12:51:11.203Z,72.92
2018-06-24T12:52:11.180Z,73.88